Time;durP1;ratioP1;P1;durP2;ratioP2;P2;SDS_P1;SDS_P2;PMS_P1;PMS_P2;Temp;Humidity;BMP_temperature;BMP_pressure;BME280_temperature;BME280_humidity;BME280_pressure;Samples;Min_cycle;Max_cycle;Signal;HPM_P1;HPM_P2
2022/03/20 00:03:18;;;;;;;2.92;1.25;;;9.90;63.60;;;;;;21123111;28;20055;-75
2022/03/20 00:13:20;;;;;;;2.67;1.30;;;9.80;63.50;;;;;;21122962;28;20042;-74
2022/03/20 00:23:23;;;;;;;1.83;1.25;;;9.80;63.50;;;;;;21123654;28;20134;-76
2022/03/20 00:33:24;;;;;;;2.00;1.33;;;9.80;63.50;;;;;;21123222;28;20039;-74
2022/03/20 00:43:24;;;;;;;3.27;1.60;;;9.80;63.50;;;;;;21130818;28;20388;-77
2022/03/20 00:53:25;;;;;;;2.00;1.30;;;9.80;63.50;;;;;;21154565;28;20293;-74
2022/03/20 01:03:26;;;;;;;2.63;1.75;;;9.80;63.60;;;;;;21137106;28;20762;-73
2022/03/20 01:13:26;;;;;;;3.20;1.73;;;9.80;63.60;;;;;;21133417;28;20466;-74
2022/03/20 01:23:27;;;;;;;3.17;1.85;;;9.80;63.50;;;;;;21152098;28;20306;-77
2022/03/20 01:33:28;;;;;;;2.80;1.85;;;9.70;63.50;;;;;;21135019;28;20071;-75
2022/03/20 01:43:28;;;;;;;3.92;1.60;;;9.80;63.50;;;;;;21116195;28;20143;-74
2022/03/20 01:53:29;;;;;;;3.88;2.03;;;9.70;63.50;;;;;;21098855;28;20027;-74
2022/03/20 02:03:30;;;;;;;3.22;1.63;;;9.70;63.60;;;;;;21098674;28;20281;-73
2022/03/20 02:13:30;;;;;;;3.67;1.85;;;9.70;63.60;;;;;;21366530;22;20075;-81
2022/03/20 02:23:34;;;;;;;3.85;2.00;;;9.80;63.60;;;;;;21030189;28;20458;-81
2022/03/20 02:33:35;;;;;;;3.72;2.65;;;9.70;63.60;;;;;;21012487;28;20028;-79
2022/03/20 02:43:38;;;;;;;4.78;2.67;;;9.70;63.50;;;;;;21044595;28;20046;-79
2022/03/20 02:53:39;;;;;;;3.95;2.05;;;9.70;63.50;;;;;;21045285;28;20040;-77
2022/03/20 03:03:40;;;;;;;8.73;2.67;;;9.70;63.50;;;;;;21077775;28;20509;-79
2022/03/20 03:13:41;;;;;;;4.32;2.35;;;9.70;63.50;;;;;;21059709;28;20173;-78
2022/03/20 03:23:44;;;;;;;5.72;2.85;;;9.70;63.50;;;;;;21025882;28;20035;-79
2022/03/20 03:44:05;;;;;;;5.00;3.03;;;9.60;63.40;;;;;;20962238;28;20028;-79
2022/03/20 03:54:06;;;;;;;6.95;2.72;;;9.70;63.40;;;;;;20974222;28;20770;-79
2022/03/20 04:04:06;;;;;;;6.85;3.35;;;9.70;63.40;;;;;;20955984;28;20119;-79
2022/03/20 04:14:08;;;;;;;3.95;2.47;;;9.70;63.30;;;;;;20958386;28;20044;-78
2022/03/20 04:24:08;;;;;;;6.80;2.80;;;9.60;63.20;;;;;;20972556;28;20047;-78
2022/03/20 04:34:10;;;;;;;6.47;3.33;;;9.60;63.20;;;;;;20987914;28;20041;-79
2022/03/20 04:44:12;;;;;;;7.18;3.55;;;9.60;63.10;;;;;;20954405;28;20029;-80
2022/03/20 05:04:33;;;;;;;6.28;3.63;;;9.70;63.10;;;;;;20968061;28;20048;-79
2022/03/20 05:14:34;;;;;;;8.38;3.40;;;9.60;63.00;;;;;;20968404;28;20044;-79
2022/03/20 05:24:35;;;;;;;7.63;4.03;;;9.50;62.90;;;;;;20983892;28;20025;-79
2022/03/20 05:34:36;;;;;;;6.95;3.65;;;9.60;62.90;;;;;;20966151;28;20036;-79
2022/03/20 05:44:37;;;;;;;7.60;3.95;;;9.60;62.90;;;;;;21014331;28;20044;-79
2022/03/20 05:54:38;;;;;;;6.57;3.97;;;9.50;62.80;;;;;;21047111;28;20082;-79
2022/03/20 06:04:38;;;;;;;6.85;4.30;;;9.50;62.70;;;;;;21046206;28;20055;-79
2022/03/20 06:14:39;;;;;;;7.32;3.97;;;9.50;62.60;;;;;;21046750;28;20478;-79
2022/03/20 06:24:39;;;;;;;10.30;4.63;;;9.50;62.60;;;;;;21062266;28;20382;-78
2022/03/20 06:34:41;;;;;;;6.60;3.95;;;9.50;62.50;;;;;;21079716;28;20510;-79
2022/03/20 06:44:41;;;;;;;7.10;4.07;;;9.50;62.50;;;;;;21026249;28;20032;-80
2022/03/20 06:54:42;;;;;;;8.43;3.75;;;9.50;62.40;;;;;;21043657;28;20048;-79
2022/03/20 07:04:43;;;;;;;5.50;3.55;;;9.50;62.40;;;;;;21009636;28;20032;-81
2022/03/20 07:14:44;;;;;;;9.63;4.70;;;9.50;62.30;;;;;;21074775;28;20036;-79
2022/03/20 07:24:44;;;;;;;7.45;4.22;;;9.40;62.20;;;;;;21056551;28;20703;-78
2022/03/20 07:34:45;;;;;;;9.20;4.67;;;9.50;62.10;;;;;;21064757;28;20032;-77
2022/03/20 07:44:46;;;;;;;7.55;3.58;;;9.40;62.00;;;;;;21055188;28;20314;-77
2022/03/20 07:54:47;;;;;;;9.73;4.85;;;9.50;61.90;;;;;;21048269;28;20047;-75
2022/03/20 08:04:48;;;;;;;10.57;6.18;;;9.50;61.80;;;;;;21068492;28;20100;-86
2022/03/20 08:14:48;;;;;;;37.80;10.90;;;9.50;61.70;;;;;;20975481;28;20024;-79
2022/03/20 08:24:49;;;;;;;29.73;10.82;;;9.50;59.50;;;;;;21032195;28;20047;-77
2022/03/20 08:34:50;;;;;;;19.75;8.13;;;9.50;59.20;;;;;;21066903;28;20039;-76
2022/03/20 08:44:52;;;;;;;21.73;8.00;;;9.60;59.40;;;;;;21068573;28;20028;-77
2022/03/20 08:54:53;;;;;;;23.50;8.00;;;9.60;59.60;;;;;;21066781;28;20032;-82
2022/03/20 09:04:53;;;;;;;15.18;6.53;;;9.60;59.80;;;;;;21051492;28;20032;-89
2022/03/20 09:14:54;;;;;;;12.48;5.70;;;9.70;60.00;;;;;;21039003;28;20056;-84
2022/03/20 09:24:55;;;;;;;14.20;6.03;;;9.70;60.10;;;;;;21038134;28;20035;-86
2022/03/20 09:34:56;;;;;;;12.98;5.22;;;9.80;60.10;;;;;;21049742;28;20109;-83
2022/03/20 09:44:58;;;;;;;12.02;4.97;;;9.80;60.10;;;;;;21052267;28;20085;-85
2022/03/20 09:55:00;;;;;;;21.05;5.60;;;9.90;60.00;;;;;;21052651;28;20036;-84
2022/03/20 10:05:08;;;;;;;9.57;4.57;;;9.90;60.00;;;;;;21046875;28;20071;-76
2022/03/20 10:15:10;;;;;;;10.13;3.75;;;9.90;60.00;;;;;;21037129;28;20043;-82
2022/03/20 10:25:13;;;;;;;11.20;4.65;;;10.00;59.80;;;;;;21063510;28;20445;-84
2022/03/20 10:35:14;;;;;;;9.60;5.45;;;10.10;59.60;;;;;;21016846;28;20558;-81
2022/03/20 10:45:17;;;;;;;8.23;4.82;;;10.20;59.40;;;;;;21040906;28;20447;-80
2022/03/20 10:55:18;;;;;;;10.27;4.22;;;10.40;59.50;;;;;;21055730;28;20128;-81
2022/03/20 11:05:20;;;;;;;11.57;4.38;;;10.40;59.50;;;;;;21055264;28;20310;-82
2022/03/20 11:15:21;;;;;;;8.27;3.78;;;10.30;59.60;;;;;;21022190;28;20044;-81
2022/03/20 11:25:25;;;;;;;7.78;3.67;;;10.30;59.70;;;;;;21038366;28;20668;-78
2022/03/20 11:35:30;;;;;;;5.85;2.95;;;10.20;59.60;;;;;;21037658;28;20044;-81
2022/03/20 11:45:32;;;;;;;7.75;3.63;;;10.20;59.50;;;;;;21022909;28;20456;-81
2022/03/20 11:55:37;;;;;;;5.47;3.08;;;10.30;59.40;;;;;;21003599;28;20073;-80
2022/03/20 12:05:58;;;;;;;5.18;2.80;;;10.30;59.30;;;;;;21038079;28;20036;-80
2022/03/20 12:15:58;;;;;;;5.28;2.97;;;10.30;59.30;;;;;;21036740;28;20038;-78
2022/03/20 12:26:34;;;;;;;5.13;3.07;;;10.30;59.30;;;;;;21043779;28;20039;-77
2022/03/20 12:36:35;;;;;;;6.05;3.22;;;10.30;58.30;;;;;;21030942;28;20369;-77
2022/03/20 12:46:40;;;;;;;5.65;2.95;;;10.30;57.60;;;;;;21070165;28;20028;-77
2022/03/20 12:56:54;;;;;;;6.68;3.65;;;10.30;57.60;;;;;;21049847;28;20032;-80
2022/03/20 13:06:55;;;;;;;5.18;2.70;;;10.30;57.90;;;;;;21030869;28;20060;-79
2022/03/20 13:16:58;;;;;;;6.43;2.58;;;10.20;58.10;;;;;;21046083;28;20074;-78
2022/03/20 13:27:00;;;;;;;3.88;2.10;;;10.20;58.20;;;;;;20992686;28;20034;-78
2022/03/20 13:37:08;;;;;;;4.47;1.95;;;10.20;58.30;;;;;;21046567;28;20059;-76
2022/03/20 13:47:10;;;;;;;4.13;2.10;;;10.20;58.40;;;;;;21022010;28;20039;-75
2022/03/20 13:57:12;;;;;;;4.72;2.42;;;10.20;58.60;;;;;;21007542;28;20047;-75
2022/03/20 14:07:19;;;;;;;9.40;2.42;;;10.30;58.70;;;;;;21017586;28;20067;-79
2022/03/20 14:17:50;;;;;;;4.57;2.00;;;10.30;57.90;;;;;;20988856;28;20375;-78
2022/03/20 14:28:00;;;;;;;5.85;2.10;;;10.40;57.80;;;;;;21036964;28;20139;-78
2022/03/20 14:48:35;;;;;;;5.93;2.10;;;10.40;57.90;;;;;;21046423;28;20036;-80
2022/03/20 14:58:36;;;;;;;7.43;2.00;;;10.40;57.70;;;;;;21040301;28;20039;-78
2022/03/20 15:18:57;;;;;;;5.78;3.47;;;10.50;57.70;;;;;;21043980;28;20039;-78
2022/03/20 15:28:58;;;;;;;6.90;2.45;;;10.60;57.70;;;;;;21025183;28;20390;-84
2022/03/20 15:38:58;;;;;;;5.72;2.35;;;10.70;57.50;;;;;;21042381;28;20032;-84
2022/03/20 15:48:59;;;;;;;4.30;1.85;;;10.80;57.70;;;;;;21042753;28;20032;-82
2022/03/20 15:58:59;;;;;;;5.20;1.90;;;10.80;57.70;;;;;;21023638;28;20035;-82
2022/03/20 16:09:00;;;;;;;4.72;2.55;;;10.90;57.80;;;;;;20989274;28;20040;-80
2022/03/20 16:19:01;;;;;;;5.28;2.63;;;10.90;57.80;;;;;;20989544;28;20036;-82
2022/03/20 16:29:02;;;;;;;3.33;1.48;;;10.90;57.80;;;;;;20973874;28;20402;-79
2022/03/20 16:39:03;;;;;;;3.15;1.63;;;10.90;57.80;;;;;;20967873;28;20499;-80
2022/03/20 16:49:04;;;;;;;2.95;1.52;;;10.90;57.90;;;;;;21019601;28;20443;-78
2022/03/20 16:59:04;;;;;;;2.85;1.88;;;10.80;57.90;;;;;;21037680;28;20057;-78
2022/03/20 17:09:05;;;;;;;3.17;1.90;;;10.80;58.60;;;;;;21031653;28;20085;-79
2022/03/20 17:19:05;;;;;;;2.88;1.65;;;10.80;58.00;;;;;;21032099;28;20123;-81
2022/03/20 17:29:06;;;;;;;3.28;1.48;;;10.80;58.10;;;;;;21029176;28;20028;-82
2022/03/20 17:39:07;;;;;;;2.58;1.55;;;10.70;58.10;;;;;;21045000;28;20130;-80
2022/03/20 17:49:08;;;;;;;4.32;2.38;;;10.70;58.20;;;;;;21026284;28;20436;-79
2022/03/20 17:59:24;;;;;;;2.85;1.67;;;10.60;58.30;;;;;;21042723;28;20390;-78
2022/03/20 18:09:25;;;;;;;3.83;1.90;;;10.60;58.50;;;;;;21047135;28;20152;-79
2022/03/20 18:19:26;;;;;;;2.22;1.35;;;10.50;58.60;;;;;;21043202;28;20116;-89
2022/03/20 18:29:26;;;;;;;2.78;1.52;;;10.50;58.80;;;;;;21059374;28;20031;-79
2022/03/20 18:39:27;;;;;;;3.42;1.77;;;10.50;59.60;;;;;;21055916;28;20047;-73
2022/03/20 18:49:28;;;;;;;2.60;1.15;;;10.40;59.00;;;;;;21055405;28;20090;-72
2022/03/20 18:59:30;;;;;;;5.47;1.38;;;10.40;59.20;;;;;;21055942;28;20036;-72
2022/03/20 19:09:31;;;;;;;2.25;1.45;;;10.40;59.30;;;;;;21022770;28;20167;-72
2022/03/20 19:19:31;;;;;;;2.80;1.10;;;10.40;59.40;;;;;;21038653;28;20135;-73
2022/03/20 19:29:32;;;;;;;2.88;1.27;;;10.40;59.50;;;;;;21072166;28;20364;-72
2022/03/20 19:39:54;;;;;;;2.28;1.52;;;10.40;59.60;;;;;;21053536;28;20478;-73
2022/03/20 19:49:55;;;;;;;2.40;1.10;;;10.30;60.30;;;;;;21055758;28;20432;-73
2022/03/20 19:59:55;;;;;;;1.85;1.15;;;10.30;59.70;;;;;;21066853;28;20044;-73
2022/03/20 20:09:56;;;;;;;3.05;1.20;;;10.30;59.80;;;;;;21036099;28;20051;-72
2022/03/20 20:20:01;;;;;;;1.17;0.98;;;10.30;59.90;;;;;;21053237;28;20241;-73
2022/03/20 20:30:06;;;;;;;1.75;1.13;;;10.30;60.00;;;;;;21035525;28;20356;-72
2022/03/20 20:40:08;;;;;;;2.85;1.48;;;10.30;60.00;;;;;;21035695;28;20038;-73
2022/03/20 20:50:09;;;;;;;1.85;1.08;;;10.30;60.80;;;;;;21036591;28;20031;-74
2022/03/20 21:00:10;;;;;;;2.38;1.00;;;10.30;60.20;;;;;;21032083;28;20131;-73
2022/03/20 21:20:30;;;;;;;1.95;1.10;;;10.20;60.30;;;;;;21063171;28;20039;-72
2022/03/20 21:30:30;;;;;;;1.58;0.80;;;10.20;60.30;;;;;;21038016;28;20029;-73
2022/03/20 21:40:31;;;;;;;1.80;1.05;;;10.30;60.40;;;;;;20994257;28;20039;-73
2022/03/20 21:50:32;;;;;;;1.87;1.20;;;10.20;60.40;;;;;;20980319;28;20032;-73
2022/03/20 22:00:34;;;;;;;2.20;1.30;;;10.20;60.40;;;;;;21035589;28;20369;-72
2022/03/20 22:10:36;;;;;;;2.50;0.98;;;10.20;60.50;;;;;;21033936;27;20137;-74
2022/03/20 22:20:37;;;;;;;1.55;0.95;;;10.20;60.50;;;;;;21018989;28;20118;-74
2022/03/20 22:30:38;;;;;;;3.45;1.23;;;10.20;60.50;;;;;;21019806;28;20518;-73
2022/03/20 22:40:38;;;;;;;2.28;1.30;;;10.20;60.50;;;;;;21051316;28;20035;-73
2022/03/20 22:50:39;;;;;;;2.00;1.10;;;10.20;60.60;;;;;;21034686;28;20115;-73
2022/03/20 23:00:43;;;;;;;1.70;1.10;;;10.20;60.60;;;;;;20988042;28;20037;-73
2022/03/20 23:10:43;;;;;;;2.05;1.25;;;10.20;60.70;;;;;;20972504;28;20123;-74
2022/03/20 23:20:44;;;;;;;2.70;0.80;;;10.20;60.70;;;;;;20955410;28;20040;-73
2022/03/20 23:30:45;;;;;;;3.50;1.05;;;10.20;60.70;;;;;;20988377;28;20039;-73
2022/03/20 23:51:05;;;;;;;2.20;1.52;;;10.20;60.80;;;;;;20958403;28;20032;-73
